createdAt,value
2023-03-21T00:00:58.134Z,27.06
2023-03-21T00:01:58.140Z,27.05
2023-03-21T00:02:58.128Z,27.04
2023-03-21T00:03:58.309Z,27.04
2023-03-21T00:05:05.862Z,27.01
2023-03-21T00:05:59.203Z,27.00
2023-03-21T00:06:58.231Z,26.99
2023-03-21T00:07:59.526Z,26.98
2023-03-21T00:08:58.359Z,26.97
2023-03-21T00:10:05.142Z,26.95
2023-03-21T00:10:59.346Z,26.94
2023-03-21T00:11:58.370Z,26.94
2023-03-21T00:12:58.391Z,26.92
2023-03-21T00:13:58.411Z,26.91
2023-03-21T00:14:58.428Z,26.93
2023-03-21T00:23:58.688Z,26.81
2023-03-21T00:24:58.745Z,26.78
2023-03-21T00:25:58.816Z,26.78
2023-03-21T00:27:15.836Z,26.77
2023-03-21T00:28:07.907Z,26.76
2023-03-21T00:28:59.951Z,26.76
2023-03-21T00:29:58.938Z,26.75
2023-03-21T00:30:58.975Z,26.75
2023-03-21T00:31:59.005Z,26.73
2023-03-21T00:33:03.557Z,26.73
2023-03-21T00:34:00.043Z,26.74
2023-03-21T00:36:05.242Z,26.70
2023-03-21T00:37:00.121Z,26.69
2023-03-21T00:37:59.139Z,26.70
2023-03-21T00:38:59.176Z,26.68
2023-03-21T00:39:59.228Z,26.68
2023-03-21T00:41:04.688Z,26.69
2023-03-21T00:42:00.260Z,26.69
2023-03-21T00:42:59.242Z,26.69
2023-03-21T00:43:59.262Z,26.66
2023-03-21T00:44:59.299Z,26.66
2023-03-21T00:45:59.330Z,26.63
2023-03-21T00:47:07.137Z,26.65
2023-03-21T00:48:00.488Z,26.65
2023-03-21T00:48:59.434Z,26.65
2023-03-21T00:49:59.421Z,26.65
2023-03-21T00:50:59.482Z,26.65
2023-03-21T00:52:08.668Z,26.65
2023-03-21T00:53:00.521Z,26.63
2023-03-21T00:53:59.603Z,26.65
2023-03-21T00:54:59.574Z,26.64
2023-03-21T00:55:59.568Z,26.65
2023-03-21T00:56:59.612Z,26.64
2023-03-21T00:58:02.351Z,26.66
2023-03-21T00:58:59.676Z,26.63
2023-03-21T00:59:59.726Z,26.65
2023-03-21T01:00:59.736Z,26.66
2023-03-21T01:01:59.758Z,26.66
2023-03-21T01:03:08.606Z,26.65
2023-03-21T01:04:01.326Z,26.66
2023-03-21T01:04:59.796Z,26.64
2023-03-21T01:05:59.853Z,26.62
2023-03-21T01:06:59.860Z,26.59
2023-03-21T01:07:59.906Z,26.59
2023-03-21T01:08:59.928Z,26.58
2023-03-21T01:09:59.940Z,26.57
2023-03-21T01:10:59.944Z,26.57
2023-03-21T01:11:59.994Z,26.55
2023-03-21T01:13:00.014Z,26.55
2023-03-21T01:14:14.631Z,26.54
2023-03-21T01:16:00.219Z,26.57
2023-03-21T01:17:00.118Z,26.58
2023-03-21T01:18:00.166Z,26.58
2023-03-21T01:20:00.223Z,26.57
2023-03-21T01:21:00.224Z,26.59
2023-03-21T01:22:00.273Z,26.62
2023-03-21T01:23:00.318Z,26.62
2023-03-21T01:24:00.307Z,26.62
2023-03-21T01:25:12.025Z,26.64
2023-03-21T01:26:01.377Z,26.66
2023-03-21T01:27:00.424Z,26.66
2023-03-21T01:28:00.435Z,26.67
2023-03-21T01:31:00.485Z,26.69
2023-03-21T01:37:00.699Z,26.72
2023-03-21T01:43:00.987Z,26.75
2023-03-21T01:47:11.190Z,26.76
2023-03-21T01:48:02.321Z,26.78
2023-03-21T01:49:01.332Z,26.78
2023-03-21T01:50:01.389Z,26.77
2023-03-21T01:51:01.376Z,26.78
2023-03-21T01:52:11.412Z,26.81
2023-03-21T01:53:02.451Z,26.80
2023-03-21T01:54:01.484Z,26.81
2023-03-21T01:55:01.481Z,26.81
2023-03-21T01:56:01.522Z,26.82
2023-03-21T01:57:01.551Z,26.82
2023-03-21T01:58:06.358Z,26.82
2023-03-21T01:59:02.616Z,26.81
2023-03-21T02:00:01.651Z,26.80
2023-03-21T02:01:01.675Z,26.77
2023-03-21T02:02:01.776Z,26.78
2023-03-21T02:03:11.494Z,26.76
2023-03-21T02:04:02.786Z,26.76
2023-03-21T02:05:01.762Z,26.76
2023-03-21T02:06:01.813Z,26.74
2023-03-21T02:07:01.826Z,26.74
2023-03-21T02:08:01.868Z,26.75
2023-03-21T02:09:01.874Z,26.75
2023-03-21T02:10:01.930Z,26.72
2023-03-21T02:11:01.938Z,26.73
2023-03-21T02:12:02.051Z,26.73
2023-03-21T02:13:01.986Z,26.72
2023-03-21T02:14:06.602Z,26.74
2023-03-21T02:15:03.020Z,26.75
2023-03-21T02:16:02.075Z,26.77
2023-03-21T02:17:02.147Z,26.76
2023-03-21T02:18:02.126Z,26.79
2023-03-21T02:19:02.138Z,26.79
2023-03-21T02:20:02.140Z,26.79
2023-03-21T02:21:02.169Z,26.79
2023-03-21T02:22:02.223Z,26.80
2023-03-21T02:23:02.220Z,26.82
2023-03-21T02:24:02.269Z,26.83
2023-03-21T02:25:08.169Z,26.81
2023-03-21T02:26:03.281Z,26.83
2023-03-21T02:27:04.319Z,26.85
2023-03-21T02:28:02.350Z,26.84
2023-03-21T02:29:02.356Z,26.85
2023-03-21T02:30:02.407Z,26.85
2023-03-21T02:31:02.462Z,26.86
2023-03-21T02:32:15.136Z,26.86
2023-03-21T02:33:03.451Z,26.88
2023-03-21T02:34:02.445Z,26.87
2023-03-21T02:35:02.473Z,26.85
2023-03-21T02:36:11.945Z,26.87
2023-03-21T02:37:03.545Z,26.88
2023-03-21T02:38:02.561Z,26.88
2023-03-21T02:39:02.592Z,26.90
2023-03-21T02:40:02.617Z,26.89
2023-03-21T02:41:05.390Z,26.91
2023-03-21T02:42:03.654Z,26.89
2023-03-21T02:43:03.073Z,26.88
2023-03-21T02:44:02.726Z,26.90
2023-03-21T02:45:02.740Z,26.90
2023-03-21T02:46:02.846Z,26.93
2023-03-21T02:47:06.358Z,26.93
2023-03-21T02:48:03.400Z,26.92
2023-03-21T02:49:02.861Z,26.92
2023-03-21T02:50:02.845Z,26.92
2023-03-21T02:51:02.837Z,26.91
2023-03-21T02:52:14.447Z,26.93
2023-03-21T02:53:03.902Z,26.93
2023-03-21T02:55:03.938Z,26.92
2023-03-21T02:56:02.945Z,26.94
2023-03-21T02:57:02.959Z,26.94
2023-03-21T02:58:12.464Z,26.93
2023-03-21T02:59:04.013Z,26.93
2023-03-21T03:00:15.504Z,26.94
2023-03-21T03:01:04.104Z,26.94
2023-03-21T03:02:03.078Z,26.95
2023-03-21T03:03:09.888Z,26.95
2023-03-21T03:04:04.158Z,26.96
2023-03-21T03:05:11.559Z,26.95
2023-03-21T03:06:04.175Z,26.98
2023-03-21T03:07:03.202Z,26.96
2023-03-21T03:08:03.206Z,26.96
2023-03-21T03:09:03.382Z,26.96
2023-03-21T03:10:03.276Z,26.98
2023-03-21T03:11:03.302Z,26.97
2023-03-21T03:12:03.299Z,26.95
2023-03-21T03:13:03.336Z,26.95
2023-03-21T03:14:21.122Z,26.95
2023-03-21T03:15:04.585Z,26.97
2023-03-21T03:16:03.417Z,26.97
2023-03-21T03:17:03.430Z,26.97
2023-03-21T03:18:03.472Z,26.98
2023-03-21T03:19:03.471Z,27.00
2023-03-21T03:20:15.191Z,26.97
2023-03-21T03:21:04.501Z,26.99
2023-03-21T03:22:03.562Z,26.98
2023-03-21T03:23:03.578Z,26.99
2023-03-21T03:24:03.606Z,27.02
2023-03-21T03:25:16.352Z,26.98
2023-03-21T03:26:04.626Z,27.02
2023-03-21T03:27:03.660Z,27.00
2023-03-21T03:28:03.719Z,27.00
2023-03-21T03:29:03.739Z,27.00
2023-03-21T03:30:03.729Z,27.01
2023-03-21T03:31:09.728Z,27.01
2023-03-21T03:32:04.902Z,27.01
2023-03-21T03:33:03.816Z,27.01
2023-03-21T03:34:03.861Z,27.03
2023-03-21T03:35:03.851Z,27.02
2023-03-21T03:36:06.550Z,27.02
2023-03-21T03:37:03.910Z,27.03
2023-03-21T03:38:03.952Z,27.03
2023-03-21T03:39:03.994Z,27.03
2023-03-21T03:40:04.006Z,27.02
2023-03-21T03:41:04.034Z,27.02
2023-03-21T03:42:15.272Z,27.02
2023-03-21T03:43:05.087Z,27.04
2023-03-21T03:44:04.098Z,27.03
2023-03-21T03:45:04.137Z,27.04
2023-03-21T03:46:04.132Z,27.04
2023-03-21T03:47:04.155Z,27.05
2023-03-21T03:48:04.232Z,27.03
2023-03-21T03:49:04.194Z,27.04
2023-03-21T03:50:04.253Z,27.03
2023-03-21T03:51:04.260Z,27.02
2023-03-21T03:52:04.264Z,27.02
2023-03-21T03:53:09.900Z,27.01
2023-03-21T03:54:05.347Z,27.01
2023-03-21T03:55:04.372Z,27.03
2023-03-21T03:56:04.365Z,27.02
2023-03-21T03:57:04.427Z,27.00
2023-03-21T03:58:06.443Z,27.01
2023-03-21T03:59:05.468Z,27.02
2023-03-21T04:00:04.477Z,27.00
2023-03-21T04:01:04.463Z,26.99
2023-03-21T04:02:04.550Z,27.01
2023-03-21T04:03:04.577Z,27.02
2023-03-21T04:04:12.961Z,26.98
2023-03-21T04:05:05.581Z,27.03
2023-03-21T04:06:04.573Z,27.01
2023-03-21T04:07:04.615Z,26.99
2023-03-21T04:08:04.628Z,26.99
2023-03-21T04:09:13.697Z,26.96
2023-03-21T04:10:05.692Z,26.97
2023-03-21T04:11:04.684Z,26.95
2023-03-21T04:12:04.737Z,26.93
2023-03-21T04:13:04.718Z,26.89
2023-03-21T04:14:04.744Z,26.89
2023-03-21T04:15:10.739Z,26.88
2023-03-21T04:16:05.902Z,26.86
2023-03-21T04:17:04.806Z,26.85
2023-03-21T04:18:04.871Z,26.83
2023-03-21T04:19:04.835Z,26.81
2023-03-21T04:20:12.151Z,26.81
2023-03-21T04:21:05.915Z,26.79
2023-03-21T04:22:04.894Z,26.76
2023-03-21T04:23:04.928Z,26.75
2023-03-21T04:24:04.968Z,26.76
2023-03-21T04:25:04.984Z,26.74
2023-03-21T04:26:04.991Z,26.73
2023-03-21T04:27:05.004Z,26.70
2023-03-21T04:28:05.053Z,26.72
2023-03-21T04:29:05.036Z,26.70
2023-03-21T04:30:05.053Z,26.71
2023-03-21T04:31:13.356Z,26.70
2023-03-21T04:32:06.116Z,26.70
2023-03-21T04:33:05.124Z,26.70
2023-03-21T04:34:05.131Z,26.67
2023-03-21T04:35:05.131Z,26.68
2023-03-21T04:36:05.335Z,26.69
2023-03-21T04:37:05.189Z,26.66
2023-03-21T04:38:05.213Z,26.63
2023-03-21T04:39:05.240Z,26.61
2023-03-21T04:40:05.244Z,26.62
2023-03-21T04:41:05.284Z,26.62
2023-03-21T04:42:05.305Z,26.61
2023-03-21T04:43:05.308Z,26.61
2023-03-21T04:44:05.341Z,26.65
2023-03-21T04:45:05.346Z,26.64
2023-03-21T04:46:05.423Z,26.59
2023-03-21T04:47:05.420Z,26.60
2023-03-21T04:48:05.423Z,26.64
2023-03-21T04:49:05.451Z,26.62
2023-03-21T04:50:05.458Z,26.65
2023-03-21T04:51:05.470Z,26.67
2023-03-21T04:52:05.520Z,26.61
2023-03-21T04:53:05.568Z,26.61
2023-03-21T04:54:05.595Z,26.66
2023-03-21T04:55:05.667Z,26.63
2023-03-21T04:56:05.707Z,26.68
2023-03-21T04:57:05.758Z,26.69
2023-03-21T04:58:05.742Z,26.67
2023-03-21T04:59:05.812Z,26.73
2023-03-21T05:00:05.874Z,26.73
2023-03-21T05:01:05.991Z,26.70
2023-03-21T05:02:05.961Z,26.68
2023-03-21T05:03:05.972Z,26.71
2023-03-21T05:04:06.085Z,26.70
2023-03-21T05:05:06.073Z,26.67
2023-03-21T05:06:06.112Z,26.70
2023-03-21T05:07:06.187Z,26.67
2023-03-21T05:08:06.220Z,26.65
2023-03-21T05:09:06.239Z,26.61
2023-03-21T05:10:06.310Z,26.62
2023-03-21T05:11:06.331Z,26.63
2023-03-21T05:12:06.387Z,26.66
2023-03-21T05:13:06.412Z,26.61
2023-03-21T05:14:06.487Z,26.61
2023-03-21T05:15:06.552Z,26.59
2023-03-21T05:16:06.576Z,26.58
2023-03-21T05:17:06.672Z,26.57
2023-03-21T05:18:06.636Z,26.54
2023-03-21T05:19:06.700Z,26.51
2023-03-21T05:20:06.753Z,26.53
2023-03-21T05:21:06.767Z,26.53
2023-03-21T05:22:06.821Z,26.54
2023-03-21T05:23:06.910Z,26.53
2023-03-21T05:24:06.908Z,26.51
2023-03-21T05:25:06.972Z,26.50
2023-03-21T05:26:07.036Z,26.48
2023-03-21T05:27:07.064Z,26.47
2023-03-21T05:28:07.103Z,26.47
2023-03-21T05:29:07.192Z,26.46
2023-03-21T05:30:07.206Z,26.46
2023-03-21T05:31:07.319Z,26.43
2023-03-21T05:32:07.341Z,26.45
2023-03-21T05:33:07.357Z,26.48
2023-03-21T05:34:07.363Z,26.51
2023-03-21T05:35:07.437Z,26.48
2023-03-21T05:36:07.495Z,26.49
2023-03-21T05:37:07.538Z,26.44
2023-03-21T05:38:07.555Z,26.45
2023-03-21T05:39:07.601Z,26.47
2023-03-21T05:40:07.653Z,26.45
2023-03-21T05:41:07.685Z,26.44
2023-03-21T05:42:07.706Z,26.43
2023-03-21T05:43:07.773Z,26.40
2023-03-21T05:44:07.789Z,26.41
2023-03-21T05:45:07.836Z,26.40
2023-03-21T05:46:07.889Z,26.40
2023-03-21T05:47:07.940Z,26.41
2023-03-21T05:48:08.101Z,26.40
2023-03-21T05:49:08.000Z,26.41
2023-03-21T05:50:08.049Z,26.41
2023-03-21T05:51:08.079Z,26.42
2023-03-21T05:52:08.137Z,26.47
2023-03-21T05:53:08.168Z,26.47
2023-03-21T05:54:08.230Z,26.43
2023-03-21T05:55:08.283Z,26.43
2023-03-21T05:56:08.291Z,26.38
2023-03-21T05:57:08.335Z,26.39
2023-03-21T05:58:08.388Z,26.37
2023-03-21T05:59:08.424Z,26.39
2023-03-21T06:00:08.455Z,26.39
2023-03-21T06:01:15.502Z,26.36
2023-03-21T06:02:08.568Z,26.38
2023-03-21T06:03:08.612Z,26.39
2023-03-21T06:04:08.639Z,26.42
2023-03-21T06:05:08.650Z,26.45
2023-03-21T06:06:08.641Z,26.43
2023-03-21T06:07:08.705Z,26.44
2023-03-21T06:08:08.743Z,26.43
2023-03-21T06:09:08.709Z,26.40
2023-03-21T06:10:09.339Z,26.38
2023-03-21T06:11:08.752Z,26.41
2023-03-21T06:12:08.796Z,26.41
2023-03-21T06:13:08.823Z,26.43
2023-03-21T06:14:08.818Z,26.43
2023-03-21T06:15:08.912Z,26.47
2023-03-21T06:16:08.874Z,26.47
2023-03-21T06:17:08.856Z,26.43
2023-03-21T06:18:08.906Z,26.44
2023-03-21T06:19:08.894Z,26.40
2023-03-21T06:20:08.915Z,26.38
2023-03-21T06:21:08.934Z,26.40
2023-03-21T06:22:08.975Z,26.38
2023-03-21T06:23:08.967Z,26.38
2023-03-21T06:24:09.000Z,26.38
2023-03-21T06:25:08.999Z,26.37
2023-03-21T06:26:09.042Z,26.37
2023-03-21T06:27:09.060Z,26.35
2023-03-21T06:28:09.089Z,26.36
2023-03-21T06:29:09.088Z,26.36
2023-03-21T06:30:09.090Z,26.36
2023-03-21T06:31:09.160Z,26.36
2023-03-21T06:32:09.145Z,26.36
2023-03-21T06:33:09.445Z,26.54
2023-03-21T06:34:09.240Z,26.79
2023-03-21T06:35:09.187Z,26.86
2023-03-21T06:36:09.257Z,26.91
2023-03-21T06:37:09.284Z,26.93
2023-03-21T06:38:09.435Z,27.27
2023-03-21T06:39:09.282Z,27.41
2023-03-21T06:40:09.292Z,27.51
2023-03-21T06:41:09.330Z,27.78
2023-03-21T06:42:09.346Z,27.65
2023-03-21T06:43:09.441Z,27.92
2023-03-21T06:44:09.403Z,27.72
2023-03-21T06:45:09.374Z,27.77
2023-03-21T06:46:16.434Z,28.47
2023-03-21T06:47:09.430Z,28.39
2023-03-21T06:48:10.007Z,28.41
2023-03-21T06:49:09.445Z,28.67
2023-03-21T06:50:09.510Z,28.88
2023-03-21T06:51:09.468Z,29.01
2023-03-21T06:53:09.670Z,29.17
2023-03-21T06:54:09.638Z,29.33
2023-03-21T06:55:09.644Z,29.52
2023-03-21T06:56:10.619Z,29.60
2023-03-21T06:57:09.637Z,29.81
2023-03-21T06:58:09.583Z,30.04
2023-03-21T06:59:09.572Z,30.08
2023-03-21T07:00:09.690Z,29.92
2023-03-21T07:01:09.606Z,29.91
2023-03-21T07:02:09.686Z,30.12
2023-03-21T07:03:09.951Z,30.03
2023-03-21T07:04:09.589Z,30.08
2023-03-21T07:05:09.604Z,30.14
2023-03-21T07:06:09.638Z,30.16
2023-03-21T07:07:09.710Z,30.25
2023-03-21T07:08:09.745Z,30.27
2023-03-21T07:09:09.830Z,30.39
2023-03-21T07:10:09.841Z,30.58
2023-03-21T07:11:09.902Z,30.59
2023-03-21T07:12:09.945Z,30.71
2023-03-21T07:13:10.008Z,30.92
2023-03-21T07:14:10.036Z,30.88
2023-03-21T07:15:10.097Z,30.82
2023-03-21T07:16:10.143Z,31.02
2023-03-21T07:17:10.239Z,31.06
2023-03-21T07:18:10.361Z,31.15
2023-03-21T07:19:10.214Z,31.07
2023-03-21T07:20:10.259Z,31.17
2023-03-21T07:21:10.323Z,31.23
2023-03-21T07:22:10.332Z,31.29
2023-03-21T07:23:10.378Z,31.34
2023-03-21T07:24:10.392Z,31.46
2023-03-21T07:25:10.655Z,31.47
2023-03-21T07:26:10.506Z,31.51
2023-03-21T07:27:10.492Z,31.51
2023-03-21T07:28:10.553Z,31.63
2023-03-21T07:29:10.600Z,31.79
2023-03-21T07:30:10.608Z,32.07
2023-03-21T07:31:10.666Z,32.02
2023-03-21T07:32:10.715Z,32.00
2023-03-21T07:33:10.707Z,32.06
2023-03-21T07:34:10.758Z,32.23
2023-03-21T07:35:10.785Z,32.39
2023-03-21T07:36:10.853Z,32.28
2023-03-21T07:37:10.847Z,32.20
2023-03-21T07:38:10.884Z,32.20
2023-03-21T07:39:10.882Z,30.06
2023-03-21T07:40:10.966Z,29.51
2023-03-21T07:41:11.004Z,30.18
2023-03-21T07:42:11.052Z,31.05
2023-03-21T07:43:11.132Z,31.27
2023-03-21T07:44:11.209Z,31.34
2023-03-21T07:45:11.206Z,31.20
2023-03-21T07:46:11.334Z,31.12
2023-03-21T07:47:11.330Z,31.23
2023-03-21T07:48:11.440Z,31.31
2023-03-21T07:49:11.449Z,31.49
2023-03-21T07:50:11.442Z,31.41
2023-03-21T07:51:11.521Z,31.60
2023-03-21T07:52:11.569Z,31.41
2023-03-21T07:53:11.607Z,31.46
2023-03-21T07:54:11.678Z,31.49
2023-03-21T07:55:11.744Z,31.63
2023-03-21T07:56:11.855Z,31.79
2023-03-21T07:57:13.620Z,31.74
2023-03-21T07:58:11.909Z,31.77
2023-03-21T07:59:11.971Z,31.82
2023-03-21T08:00:11.997Z,32.05
2023-03-21T08:01:12.221Z,32.10
2023-03-21T08:02:12.134Z,31.95
2023-03-21T08:03:12.229Z,31.96
2023-03-21T08:04:12.216Z,32.00
2023-03-21T08:05:12.293Z,31.87
2023-03-21T08:06:12.341Z,32.02
2023-03-21T08:07:12.385Z,31.89
2023-03-21T08:08:12.419Z,31.79
2023-03-21T08:09:12.499Z,31.82
2023-03-21T08:10:12.570Z,31.78
2023-03-21T08:11:12.606Z,31.66
2023-03-21T08:12:12.644Z,31.63
2023-03-21T08:13:12.728Z,31.61
2023-03-21T08:14:12.844Z,31.56
2023-03-21T08:15:12.846Z,31.64
2023-03-21T08:16:14.008Z,31.55
2023-03-21T08:17:13.042Z,31.11
2023-03-21T08:18:13.076Z,31.08
2023-03-21T08:19:13.126Z,31.15
2023-03-21T08:20:13.150Z,31.19
2023-03-21T08:21:13.172Z,31.11
2023-03-21T08:22:13.204Z,31.21
2023-03-21T08:23:13.253Z,31.22
2023-03-21T08:24:13.284Z,31.25
2023-03-21T08:25:13.367Z,31.33
2023-03-21T08:26:13.383Z,31.21
2023-03-21T08:27:13.473Z,31.14
2023-03-21T08:28:14.001Z,31.27
2023-03-21T08:29:13.591Z,31.45
2023-03-21T08:30:13.675Z,31.33
2023-03-21T08:31:13.783Z,31.79
2023-03-21T08:32:13.781Z,31.63
2023-03-21T08:33:13.839Z,31.68
2023-03-21T08:34:14.005Z,31.82
2023-03-21T08:35:14.306Z,31.78
2023-03-21T08:36:14.150Z,32.00
2023-03-21T08:37:14.049Z,32.08
2023-03-21T08:38:14.511Z,31.91
2023-03-21T08:39:14.108Z,31.68
2023-03-21T08:40:14.178Z,31.52
2023-03-21T08:41:14.199Z,31.70
2023-03-21T08:42:14.215Z,31.44
2023-03-21T08:44:14.338Z,31.99
2023-03-21T08:45:14.351Z,31.60
2023-03-21T08:46:14.414Z,32.42
2023-03-21T08:47:14.439Z,31.90
2023-03-21T08:48:14.527Z,31.71
2023-03-21T08:49:14.617Z,31.67
2023-03-21T08:50:14.645Z,31.68
2023-03-21T08:51:14.755Z,31.66
2023-03-21T08:52:14.735Z,32.02
2023-03-21T08:53:14.995Z,32.28
2023-03-21T08:54:14.896Z,32.50
2023-03-21T08:55:14.923Z,32.38
2023-03-21T08:56:15.003Z,32.58
2023-03-21T08:57:15.091Z,32.87
2023-03-21T08:58:15.123Z,32.79
2023-03-21T08:59:15.189Z,32.51
2023-03-21T09:00:15.343Z,32.94
2023-03-21T09:01:15.255Z,33.50
2023-03-21T09:02:15.323Z,33.53
2023-03-21T09:03:16.428Z,33.51
2023-03-21T09:04:15.457Z,33.48
2023-03-21T09:05:15.398Z,33.57
2023-03-21T09:06:15.447Z,33.61
2023-03-21T09:07:15.499Z,33.65
2023-03-21T09:08:15.510Z,33.68
2023-03-21T09:09:15.537Z,33.66
2023-03-21T09:10:20.516Z,33.58
2023-03-21T09:11:16.616Z,33.47
2023-03-21T09:12:15.602Z,33.57
2023-03-21T09:13:15.608Z,33.57
2023-03-21T09:14:15.654Z,33.54
2023-03-21T09:15:15.615Z,33.30
2023-03-21T09:16:15.624Z,33.54
2023-03-21T09:17:15.592Z,33.81
2023-03-21T09:18:15.638Z,34.05
2023-03-21T09:19:15.993Z,34.18
2023-03-21T09:20:15.614Z,34.18
2023-03-21T09:21:15.628Z,34.11
2023-03-21T09:22:15.641Z,34.35
2023-03-21T09:23:15.635Z,34.41
2023-03-21T09:24:15.996Z,34.58
2023-03-21T09:25:15.650Z,34.54
2023-03-21T09:26:15.645Z,34.55
2023-03-21T09:27:15.648Z,34.48
2023-03-21T09:28:15.642Z,34.84
2023-03-21T09:29:15.637Z,34.88
2023-03-21T09:30:15.651Z,34.69
2023-03-21T09:31:15.683Z,34.62
2023-03-21T09:32:15.701Z,34.63
2023-03-21T09:33:15.746Z,34.46
2023-03-21T09:34:16.019Z,34.32
2023-03-21T09:35:15.754Z,34.58
2023-03-21T09:36:15.880Z,34.36
2023-03-21T09:37:15.848Z,34.17
2023-03-21T09:38:15.868Z,33.83
2023-03-21T09:39:15.916Z,32.98
2023-03-21T09:40:15.938Z,32.94
2023-03-21T09:41:15.996Z,32.43
2023-03-21T09:42:16.064Z,32.82
2023-03-21T09:43:16.115Z,32.83
2023-03-21T09:44:16.195Z,32.84
2023-03-21T09:45:17.320Z,32.75
2023-03-21T09:46:16.343Z,32.77
2023-03-21T09:47:16.341Z,32.76
2023-03-21T09:48:16.472Z,32.71
2023-03-21T09:49:16.520Z,32.42
2023-03-21T09:50:16.539Z,32.42
2023-03-21T09:51:16.856Z,30.07
2023-03-21T09:52:16.639Z,30.95
2023-03-21T09:53:16.662Z,31.36
2023-03-21T09:54:17.322Z,31.24
2023-03-21T09:55:16.742Z,30.86
2023-03-21T09:56:16.802Z,30.98
2023-03-21T09:57:17.019Z,30.75
2023-03-21T09:58:16.948Z,31.24
2023-03-21T09:59:17.041Z,31.62
2023-03-21T10:00:17.087Z,31.63
2023-03-21T10:01:17.174Z,31.51
2023-03-21T10:02:17.250Z,31.21
2023-03-21T10:03:17.268Z,31.05
2023-03-21T10:04:17.547Z,30.62
2023-03-21T10:05:17.380Z,30.47
2023-03-21T10:06:17.456Z,30.56
2023-03-21T10:07:17.535Z,30.77
2023-03-21T10:08:17.571Z,31.05
2023-03-21T10:09:17.615Z,31.25
2023-03-21T10:10:17.694Z,31.46
2023-03-21T10:11:17.743Z,31.26
2023-03-21T10:12:17.908Z,30.97
2023-03-21T10:13:17.842Z,30.74
2023-03-21T10:14:18.028Z,30.44
2023-03-21T10:15:17.929Z,30.38
2023-03-21T10:16:18.057Z,30.20
2023-03-21T10:17:18.040Z,30.36
2023-03-21T10:18:18.084Z,30.44
2023-03-21T10:19:18.518Z,30.25
2023-03-21T10:20:18.188Z,30.22
2023-03-21T10:21:37.321Z,30.27
2023-03-21T10:23:18.260Z,30.46
2023-03-21T10:24:18.270Z,30.33
2023-03-21T10:25:18.561Z,30.32
2023-03-21T10:26:20.371Z,30.21
2023-03-21T10:27:18.314Z,29.98
2023-03-21T10:28:18.332Z,30.27
2023-03-21T10:29:18.402Z,30.08
2023-03-21T10:30:18.552Z,30.05
2023-03-21T10:31:18.409Z,30.09
2023-03-21T10:32:18.404Z,30.06
2023-03-21T10:33:18.459Z,30.07
2023-03-21T10:34:18.405Z,30.28
2023-03-21T10:35:18.539Z,30.25
2023-03-21T10:36:18.433Z,30.35
2023-03-21T10:37:18.429Z,30.51
2023-03-21T10:38:18.429Z,30.54
2023-03-21T10:39:18.425Z,30.61
2023-03-21T10:40:18.631Z,30.88
2023-03-21T10:41:18.476Z,30.77
2023-03-21T10:42:18.501Z,30.71
2023-03-21T10:43:18.497Z,30.81
2023-03-21T10:44:18.484Z,30.78
2023-03-21T10:45:18.542Z,30.97
2023-03-21T10:46:18.762Z,31.02
2023-03-21T10:48:18.560Z,30.79
2023-03-21T10:49:18.541Z,30.77
2023-03-21T10:50:18.571Z,30.77
2023-03-21T10:51:18.550Z,30.62
2023-03-21T10:52:18.551Z,30.69
2023-03-21T10:53:18.556Z,30.87
2023-03-21T10:54:18.592Z,30.80
2023-03-21T10:55:18.658Z,30.81
2023-03-21T10:56:18.580Z,30.83
2023-03-21T10:57:18.573Z,30.73
2023-03-21T10:58:19.048Z,30.68
2023-03-21T10:59:20.429Z,30.60
2023-03-21T11:00:18.601Z,30.63
2023-03-21T11:01:18.705Z,30.80
2023-03-21T11:02:18.682Z,30.89
2023-03-21T11:03:18.581Z,30.84
2023-03-21T11:04:18.754Z,30.91
2023-03-21T11:05:20.756Z,30.81
2023-03-21T11:06:18.675Z,30.82
2023-03-21T11:07:18.627Z,30.94
2023-03-21T11:08:18.660Z,30.90
2023-03-21T11:09:18.603Z,30.92
2023-03-21T11:10:28.004Z,30.94
2023-03-21T11:12:18.634Z,31.04
2023-03-21T11:13:18.614Z,31.11
2023-03-21T11:14:18.620Z,31.03
2023-03-21T11:15:18.675Z,31.09
2023-03-21T11:16:18.712Z,31.10
2023-03-21T11:17:18.694Z,31.05
2023-03-21T11:18:18.650Z,31.18
2023-03-21T11:19:18.711Z,31.24
2023-03-21T11:20:18.667Z,31.22
2023-03-21T11:21:18.643Z,31.18
2023-03-21T11:22:18.624Z,31.12
2023-03-21T11:23:20.611Z,31.12
2023-03-21T11:24:18.656Z,31.21
2023-03-21T11:25:18.617Z,31.30
2023-03-21T11:26:18.656Z,31.35
2023-03-21T11:27:18.668Z,31.33
2023-03-21T11:28:18.681Z,31.28
2023-03-21T11:29:19.415Z,31.31
2023-03-21T11:30:18.635Z,31.39
2023-03-21T11:31:18.783Z,31.46
2023-03-21T11:32:18.645Z,31.40
2023-03-21T11:33:18.664Z,31.38
2023-03-21T11:34:19.540Z,31.56
2023-03-21T11:35:19.877Z,31.50
2023-03-21T11:36:19.100Z,31.60
2023-03-21T11:37:18.723Z,31.71
2023-03-21T11:38:18.760Z,32.00
2023-03-21T11:39:18.771Z,32.16
2023-03-21T11:40:18.787Z,32.67
2023-03-21T11:41:19.522Z,32.43
2023-03-21T11:42:18.871Z,32.04
2023-03-21T11:43:18.900Z,31.85
2023-03-21T11:45:18.992Z,31.74
2023-03-21T11:46:18.987Z,31.61
2023-03-21T11:47:19.026Z,32.01
2023-03-21T11:48:19.124Z,31.81
2023-03-21T11:49:19.080Z,31.68
2023-03-21T11:50:19.154Z,31.65
2023-03-21T11:51:19.196Z,31.79
2023-03-21T11:52:19.213Z,31.80
2023-03-21T11:53:19.245Z,31.89
2023-03-21T11:54:19.258Z,31.74
2023-03-21T11:55:19.300Z,31.65
2023-03-21T11:56:19.322Z,31.73
2023-03-21T11:57:19.374Z,31.74
2023-03-21T11:58:19.358Z,31.78
2023-03-21T11:59:19.391Z,31.85
2023-03-21T12:00:19.415Z,31.85
2023-03-21T12:01:19.452Z,31.83
2023-03-21T12:02:19.563Z,31.70
2023-03-21T12:03:19.624Z,31.69
2023-03-21T12:04:19.567Z,31.52
2023-03-21T12:05:19.627Z,31.51
2023-03-21T12:06:19.667Z,31.48
2023-03-21T12:07:19.717Z,31.46
2023-03-21T12:08:19.842Z,31.49
2023-03-21T12:09:19.804Z,31.48
2023-03-21T12:10:19.853Z,31.47
2023-03-21T12:11:19.912Z,31.45
2023-03-21T12:12:22.173Z,31.43
2023-03-21T12:13:19.978Z,31.46
2023-03-21T12:14:19.973Z,31.50
2023-03-21T12:16:20.024Z,31.51
2023-03-21T12:17:20.030Z,31.54
2023-03-21T12:18:20.031Z,31.33
2023-03-21T12:19:20.047Z,31.03
2023-03-21T12:20:20.045Z,31.05
2023-03-21T12:21:20.060Z,31.06
2023-03-21T12:22:20.090Z,31.06
2023-03-21T12:23:20.079Z,31.08
2023-03-21T12:24:20.034Z,31.10
2023-03-21T12:25:20.042Z,31.06
2023-03-21T12:26:20.073Z,31.28
2023-03-21T12:27:20.090Z,30.98
2023-03-21T12:28:31.713Z,30.47
2023-03-21T12:29:21.052Z,30.40
2023-03-21T12:30:20.077Z,31.56
2023-03-21T12:31:20.223Z,31.21
2023-03-21T12:32:20.572Z,31.54
2023-03-21T12:33:20.097Z,31.03
2023-03-21T12:36:20.292Z,31.20
2023-03-21T12:37:20.612Z,31.21
2023-03-21T12:38:20.120Z,31.21
2023-03-21T12:39:20.133Z,31.07
2023-03-21T12:40:20.149Z,30.75
2023-03-21T12:41:20.220Z,30.89
2023-03-21T12:42:20.233Z,30.90
2023-03-21T12:43:20.240Z,30.98
2023-03-21T12:44:20.333Z,31.40
2023-03-21T12:45:20.383Z,31.69
2023-03-21T12:46:20.477Z,31.86
2023-03-21T12:47:20.431Z,32.14
2023-03-21T12:48:20.517Z,32.42
2023-03-21T12:49:20.568Z,32.39
2023-03-21T12:50:20.624Z,32.34
2023-03-21T12:51:20.704Z,32.64
2023-03-21T12:52:20.840Z,32.70
2023-03-21T12:53:20.806Z,32.85
2023-03-21T12:54:20.884Z,32.87
2023-03-21T12:55:20.911Z,32.70
2023-03-21T12:56:21.021Z,32.20
2023-03-21T12:57:21.047Z,31.61
2023-03-21T12:58:21.120Z,31.52
2023-03-21T12:59:21.170Z,31.33
2023-03-21T13:00:21.243Z,31.10
2023-03-21T13:01:21.339Z,31.10
2023-03-21T13:02:21.360Z,30.72
2023-03-21T13:03:30.208Z,30.31
2023-03-21T13:04:22.440Z,30.26
2023-03-21T13:05:21.395Z,30.04
2023-03-21T13:06:21.413Z,29.65
2023-03-21T13:07:21.462Z,29.36
2023-03-21T13:08:21.546Z,29.56
2023-03-21T13:09:28.501Z,29.42
2023-03-21T13:10:22.514Z,29.36
2023-03-21T13:11:21.516Z,29.15
2023-03-21T13:12:21.571Z,29.12
2023-03-21T13:13:21.592Z,29.08
2023-03-21T13:14:21.601Z,28.75
2023-03-21T13:15:24.251Z,28.98
2023-03-21T13:16:21.690Z,28.34
2023-03-21T13:17:21.666Z,28.49
2023-03-21T13:18:21.674Z,28.67
2023-03-21T13:19:21.718Z,28.95
2023-03-21T13:20:21.705Z,29.44
2023-03-21T13:21:21.778Z,29.77
2023-03-21T13:22:21.803Z,30.02
2023-03-21T13:23:21.848Z,30.25
2023-03-21T13:24:21.955Z,29.99
2023-03-21T13:25:21.920Z,30.05
2023-03-21T13:26:21.942Z,30.45
2023-03-21T13:27:21.978Z,30.60
2023-03-21T13:28:22.045Z,30.56
2023-03-21T13:29:22.078Z,30.44